Airfield :
LOGIN :

Register | Disclaimer

   EN    FR    IT 

 










Legend :    VFR   Marginal VFR   IFR   Intensive IFR   Very Intensive IFR
Visi :
Ceiling :
>= 8 km
>= 3000ft
5 to 8 km
1000 to 3000 ft
1500m to 5 km
500 to 1000 ft
800 to 1500m
200 to 500 ft
< 800m
< 200 ft
Symbols :   Thunderstorms  Fog  Heavy snow  Heavy precipitations  Wind > 20 kt
SIGMETs :     Misc.  Thunderstorms  Icing  Turbulence  Mountain Waves  Volcanic Ashes







- Airport Elevation : 1411 ft
- IATA code : ZHI


LSZG - Grenchen

CURRENT METAR :
  • 190250Z AUTO 22004KT 9999 -DZ FEW024 OVC044 03/01 Q1020 RERASN

EXPIRED METARs :
  • 190220Z AUTO 24003KT 9000 -RASN BKN/// 02/01 Q1021
  • 190150Z AUTO 23002KT 6000 -RASN BKN/// 02/01 Q1021
  • 190120Z AUTO 27003KT 9000 -RASN BKN/// 02/01 Q1021
  • 190050Z AUTO 24003KT 9999 -RASN BKN/// 02/01 Q1021
  • 190020Z AUTO 24003KT 210V280 8000 SCT050 02/01 Q1021

Expired Forecast.
ATIS : +41 32 396 96 33
No reported NOTAMs for that airfield.



MET'MAP, your aeronautical weather chart ! - Copyright ORBIFLY December 2007 - Disclaimer

ORBIFLY MET'MAP TEAM :

Programming & Development : Alexandra Zaïnal
Concept & Development : Baudouin d'Aumeries
Co-Development & Prog : Marc-Olivier Méhu
Technical & hardware support : Manuel Goepfert

Contact : metmap@orbifly.com




SOURCES & CREDITS :

   NOAA